Terminal Aerodrome Forecast
Issued by NWS Jackson, MS

Home | Current Version | Previous Version | Text Only | Print | Product List | Glossary On
Versions: 1 2 3 4 5 6 7 8 9 10 11 12
000
FTUS44 KJAN 262321
TAFJAN
TAF
KJAN 262321Z 2700/2724 18008KT P6SM FEW090
     FM270800 18007KT P6SM BKN025
     FM270900 18007KT P6SM BKN008
     FM271300 18010G19KT P6SM BKN015
     FM271600 19013G19KT P6SM BKN025
     FM271900 20013G20KT P6SM SCT040
     FM272200 20011KT P6SM VCTS BKN050CB=

USA.gov is the U.S. government's official web portal to all federal, state and local government web resources and services.